sensor_id;sensor_type;location;lat;lon;timestamp;temperature;humidity
21676;DHT22;10999;51.332;9.458;2023-07-31T03:19:55;16.60;85.60
21676;DHT22;10999;51.332;9.458;2023-07-31T03:22:22;16.70;85.40
21676;DHT22;10999;51.332;9.458;2023-07-31T03:24:49;16.60;85.30
21676;DHT22;10999;51.332;9.458;2023-07-31T03:27:15;16.60;85.30
21676;DHT22;10999;51.332;9.458;2023-07-31T03:29:42;16.60;85.00
21676;DHT22;10999;51.332;9.458;2023-07-31T03:32:09;16.60;84.90
21676;DHT22;10999;51.332;9.458;2023-07-31T03:34:36;16.70;84.90
21676;DHT22;10999;51.332;9.458;2023-07-31T03:37:03;16.70;85.10
21676;DHT22;10999;51.332;9.458;2023-07-31T03:39:31;16.70;84.80
21676;DHT22;10999;51.332;9.458;2023-07-31T03:41:58;16.70;84.50
21676;DHT22;10999;51.332;9.458;2023-07-31T03:44:25;16.70;85.40
21676;DHT22;10999;51.332;9.458;2023-07-31T03:46:52;16.70;84.00
21676;DHT22;10999;51.332;9.458;2023-07-31T03:49:19;16.70;84.50
21676;DHT22;10999;51.332;9.458;2023-07-31T03:51:45;16.70;84.20
21676;DHT22;10999;51.332;9.458;2023-07-31T03:54:12;16.70;84.20
21676;DHT22;10999;51.332;9.458;2023-07-31T03:56:40;16.80;83.70
21676;DHT22;10999;51.332;9.458;2023-07-31T03:59:07;16.80;83.50
21676;DHT22;10999;51.332;9.458;2023-07-31T04:01:34;16.80;83.50
21676;DHT22;10999;51.332;9.458;2023-07-31T04:04:01;16.80;82.40
21676;DHT22;10999;51.332;9.458;2023-07-31T04:06:28;16.90;82.20
21676;DHT22;10999;51.332;9.458;2023-07-31T04:08:55;16.80;81.70
21676;DHT22;10999;51.332;9.458;2023-07-31T04:11:22;16.90;81.40
21676;DHT22;10999;51.332;9.458;2023-07-31T04:13:49;16.90;81.40
21676;DHT22;10999;51.332;9.458;2023-07-31T04:16:16;16.90;81.70
21676;DHT22;10999;51.332;9.458;2023-07-31T04:18:43;16.90;80.80
21676;DHT22;10999;51.332;9.458;2023-07-31T04:21:09;16.90;81.30
21676;DHT22;10999;51.332;9.458;2023-07-31T04:39:49;16.90;80.10
21676;DHT22;10999;51.332;9.458;2023-07-31T04:42:16;16.90;79.90
21676;DHT22;10999;51.332;9.458;2023-07-31T04:44:43;16.90;79.80
21676;DHT22;10999;51.332;9.458;2023-07-31T04:47:10;16.90;80.00
21676;DHT22;10999;51.332;9.458;2023-07-31T04:49:36;16.90;80.20
21676;DHT22;10999;51.332;9.458;2023-07-31T04:52:04;16.90;80.10
21676;DHT22;10999;51.332;9.458;2023-07-31T05:06:27;16.90;78.50
21676;DHT22;10999;51.332;9.458;2023-07-31T05:08:54;16.90;78.60
21676;DHT22;10999;51.332;9.458;2023-07-31T05:11:21;16.90;78.90
21676;DHT22;10999;51.332;9.458;2023-07-31T05:13:48;16.90;78.70
21676;DHT22;10999;51.332;9.458;2023-07-31T05:16:15;16.90;78.50
21676;DHT22;10999;51.332;9.458;2023-07-31T05:18:41;16.90;78.60
21676;DHT22;10999;51.332;9.458;2023-07-31T05:21:08;16.90;78.80
21676;DHT22;10999;51.332;9.458;2023-07-31T05:23:37;16.90;79.10
21676;DHT22;10999;51.332;9.458;2023-07-31T05:26:17;16.90;79.20
21676;DHT22;10999;51.332;9.458;2023-07-31T05:28:54;17.00;79.10
21676;DHT22;10999;51.332;9.458;2023-07-31T05:31:35;17.00;78.80
21676;DHT22;10999;51.332;9.458;2023-07-31T05:34:16;17.00;79.10
21676;DHT22;10999;51.332;9.458;2023-07-31T05:36:56;17.00;79.20
21676;DHT22;10999;51.332;9.458;2023-07-31T05:39:33;17.00;79.40
21676;DHT22;10999;51.332;9.458;2023-07-31T05:42:13;17.00;78.70
21676;DHT22;10999;51.332;9.458;2023-07-31T05:44:53;17.10;79.20
21676;DHT22;10999;51.332;9.458;2023-07-31T05:47:30;17.10;79.70
21676;DHT22;10999;51.332;9.458;2023-07-31T05:53:49;17.20;77.50
21676;DHT22;10999;51.332;9.458;2023-07-31T05:56:17;17.20;78.10
21676;DHT22;10999;51.332;9.458;2023-07-31T05:58:43;17.20;78.40
21676;DHT22;10999;51.332;9.458;2023-07-31T06:01:10;17.20;78.90
21676;DHT22;10999;51.332;9.458;2023-07-31T06:03:37;17.20;78.90
21676;DHT22;10999;51.332;9.458;2023-07-31T06:06:04;17.20;78.60
21676;DHT22;10999;51.332;9.458;2023-07-31T06:16:34;17.10;80.50
21676;DHT22;10999;51.332;9.458;2023-07-31T06:19:01;17.10;81.50
21676;DHT22;10999;51.332;9.458;2023-07-31T06:21:28;17.10;84.60
21676;DHT22;10999;51.332;9.458;2023-07-31T06:23:56;17.00;86.40
21676;DHT22;10999;51.332;9.458;2023-07-31T06:26:23;16.90;89.60
21676;DHT22;10999;51.332;9.458;2023-07-31T06:28:50;16.80;90.30
21676;DHT22;10999;51.332;9.458;2023-07-31T06:31:16;16.70;91.20
21676;DHT22;10999;51.332;9.458;2023-07-31T06:33:47;16.70;91.90
21676;DHT22;10999;51.332;9.458;2023-07-31T06:36:13;16.70;92.00
21676;DHT22;10999;51.332;9.458;2023-07-31T06:38:40;16.70;92.20
21676;DHT22;10999;51.332;9.458;2023-07-31T06:41:07;16.70;92.00
21676;DHT22;10999;51.332;9.458;2023-07-31T06:43:34;16.70;92.00
21676;DHT22;10999;51.332;9.458;2023-07-31T06:46:07;16.80;92.00
21676;DHT22;10999;51.332;9.458;2023-07-31T06:48:34;16.80;91.80
21676;DHT22;10999;51.332;9.458;2023-07-31T06:51:01;16.80;91.40
21676;DHT22;10999;51.332;9.458;2023-07-31T06:53:28;16.80;92.20
21676;DHT22;10999;51.332;9.458;2023-07-31T06:55:55;16.80;92.10
21676;DHT22;10999;51.332;9.458;2023-07-31T06:58:22;16.70;92.90
21676;DHT22;10999;51.332;9.458;2023-07-31T07:01:03;16.80;93.50
21676;DHT22;10999;51.332;9.458;2023-07-31T07:03:30;16.80;94.30
21676;DHT22;10999;51.332;9.458;2023-07-31T07:05:57;16.90;94.80
21676;DHT22;10999;51.332;9.458;2023-07-31T07:08:24;16.90;95.00
21676;DHT22;10999;51.332;9.458;2023-07-31T07:10:53;16.80;95.90
21676;DHT22;10999;51.332;9.458;2023-07-31T07:13:21;16.60;97.50
21676;DHT22;10999;51.332;9.458;2023-07-31T07:15:51;16.60;98.40
21676;DHT22;10999;51.332;9.458;2023-07-31T07:18:18;16.50;99.10
21676;DHT22;10999;51.332;9.458;2023-07-31T07:20:52;16.50;99.90
21676;DHT22;10999;51.332;9.458;2023-07-31T07:23:20;16.60;99.90
21676;DHT22;10999;51.332;9.458;2023-07-31T07:25:47;16.60;99.90
21676;DHT22;10999;51.332;9.458;2023-07-31T07:28:14;16.70;99.90
21676;DHT22;10999;51.332;9.458;2023-07-31T07:30:41;16.70;99.90
21676;DHT22;10999;51.332;9.458;2023-07-31T07:33:08;16.70;99.90
21676;DHT22;10999;51.332;9.458;2023-07-31T07:35:36;16.70;99.90
21676;DHT22;10999;51.332;9.458;2023-07-31T07:38:03;16.60;98.70
21676;DHT22;10999;51.332;9.458;2023-07-31T07:40:30;16.70;98.50
21676;DHT22;10999;51.332;9.458;2023-07-31T07:42:57;16.70;97.90
21676;DHT22;10999;51.332;9.458;2023-07-31T07:45:24;16.80;97.10
21676;DHT22;10999;51.332;9.458;2023-07-31T07:47:51;16.90;96.70
21676;DHT22;10999;51.332;9.458;2023-07-31T07:50:18;16.90;96.30
21676;DHT22;10999;51.332;9.458;2023-07-31T07:52:45;17.00;96.10
21676;DHT22;10999;51.332;9.458;2023-07-31T07:55:11;17.10;94.80
21676;DHT22;10999;51.332;9.458;2023-07-31T07:57:38;17.10;94.40
21676;DHT22;10999;51.332;9.458;2023-07-31T08:00:06;17.30;95.20
21676;DHT22;10999;51.332;9.458;2023-07-31T08:02:33;17.30;93.20
21676;DHT22;10999;51.332;9.458;2023-07-31T08:05:00;17.50;93.60
21676;DHT22;10999;51.332;9.458;2023-07-31T08:07:26;17.60;92.70
21676;DHT22;10999;51.332;9.458;2023-07-31T08:09:53;17.60;90.30
21676;DHT22;10999;51.332;9.458;2023-07-31T08:12:20;17.80;91.30
21676;DHT22;10999;51.332;9.458;2023-07-31T08:14:47;17.80;90.90
21676;DHT22;10999;51.332;9.458;2023-07-31T08:17:14;17.90;88.90
21676;DHT22;10999;51.332;9.458;2023-07-31T08:19:41;18.00;89.10
21676;DHT22;10999;51.332;9.458;2023-07-31T08:22:08;18.00;87.30
21676;DHT22;10999;51.332;9.458;2023-07-31T08:24:34;17.90;86.00
21676;DHT22;10999;51.332;9.458;2023-07-31T08:27:01;17.80;86.60
21676;DHT22;10999;51.332;9.458;2023-07-31T08:29:29;17.80;87.80
21676;DHT22;10999;51.332;9.458;2023-07-31T08:31:56;17.80;87.20
21676;DHT22;10999;51.332;9.458;2023-07-31T08:34:22;17.90;88.60
21676;DHT22;10999;51.332;9.458;2023-07-31T08:36:49;17.90;88.90
21676;DHT22;10999;51.332;9.458;2023-07-31T08:39:16;17.90;89.80
21676;DHT22;10999;51.332;9.458;2023-07-31T08:41:43;17.90;90.60
21676;DHT22;10999;51.332;9.458;2023-07-31T08:44:10;17.90;91.90
21676;DHT22;10999;51.332;9.458;2023-07-31T08:46:38;17.80;91.30
21676;DHT22;10999;51.332;9.458;2023-07-31T08:49:07;17.80;92.70
21676;DHT22;10999;51.332;9.458;2023-07-31T08:51:35;17.70;93.20
21676;DHT22;10999;51.332;9.458;2023-07-31T08:54:02;17.70;92.80
21676;DHT22;10999;51.332;9.458;2023-07-31T08:56:32;17.70;92.90
21676;DHT22;10999;51.332;9.458;2023-07-31T08:59:02;17.70;94.00
21676;DHT22;10999;51.332;9.458;2023-07-31T09:01:37;17.70;93.20
21676;DHT22;10999;51.332;9.458;2023-07-31T09:04:08;17.70;91.90
21676;DHT22;10999;51.332;9.458;2023-07-31T09:06:36;17.70;90.70
21676;DHT22;10999;51.332;9.458;2023-07-31T09:09:04;17.70;91.40
21676;DHT22;10999;51.332;9.458;2023-07-31T09:11:31;17.70;90.90
21676;DHT22;10999;51.332;9.458;2023-07-31T09:13:58;17.70;91.30
21676;DHT22;10999;51.332;9.458;2023-07-31T09:16:29;17.70;90.50
21676;DHT22;10999;51.332;9.458;2023-07-31T09:18:59;17.70;91.80
21676;DHT22;10999;51.332;9.458;2023-07-31T09:21:28;17.80;92.20
21676;DHT22;10999;51.332;9.458;2023-07-31T09:23:55;17.80;90.90
21676;DHT22;10999;51.332;9.458;2023-07-31T09:26:33;17.80;92.00
21676;DHT22;10999;51.332;9.458;2023-07-31T09:29:04;17.90;91.20
21676;DHT22;10999;51.332;9.458;2023-07-31T09:31:42;17.90;92.00
21676;DHT22;10999;51.332;9.458;2023-07-31T09:34:09;17.80;91.20
21676;DHT22;10999;51.332;9.458;2023-07-31T09:45:37;17.40;96.60
21676;DHT22;10999;51.332;9.458;2023-07-31T09:48:12;17.40;98.90
21676;DHT22;10999;51.332;9.458;2023-07-31T09:50:42;17.40;99.70
21676;DHT22;10999;51.332;9.458;2023-07-31T09:53:10;17.40;99.90
21676;DHT22;10999;51.332;9.458;2023-07-31T09:55:37;17.40;99.90
21676;DHT22;10999;51.332;9.458;2023-07-31T09:58:09;17.40;99.90
21676;DHT22;10999;51.332;9.458;2023-07-31T10:00:37;17.50;99.90
21676;DHT22;10999;51.332;9.458;2023-07-31T10:03:08;17.60;99.90
21676;DHT22;10999;51.332;9.458;2023-07-31T10:05:38;17.60;99.90
21676;DHT22;10999;51.332;9.458;2023-07-31T10:08:08;17.60;99.90
21676;DHT22;10999;51.332;9.458;2023-07-31T10:10:36;17.70;99.90
21676;DHT22;10999;51.332;9.458;2023-07-31T10:13:04;17.70;99.90
21676;DHT22;10999;51.332;9.458;2023-07-31T10:15:33;17.80;99.90
21676;DHT22;10999;51.332;9.458;2023-07-31T10:18:01;17.90;99.90
21676;DHT22;10999;51.332;9.458;2023-07-31T10:20:29;17.90;99.90
21676;DHT22;10999;51.332;9.458;2023-07-31T10:22:56;18.00;99.90
21676;DHT22;10999;51.332;9.458;2023-07-31T10:25:23;18.10;99.90
21676;DHT22;10999;51.332;9.458;2023-07-31T10:27:52;18.10;99.20
21676;DHT22;10999;51.332;9.458;2023-07-31T10:30:37;18.30;99.90
21676;DHT22;10999;51.332;9.458;2023-07-31T10:33:30;18.40;99.90
21676;DHT22;10999;51.332;9.458;2023-07-31T10:36:25;18.40;97.30
21676;DHT22;10999;51.332;9.458;2023-07-31T10:50:54;18.40;96.40
21676;DHT22;10999;51.332;9.458;2023-07-31T10:53:31;18.50;96.00
21676;DHT22;10999;51.332;9.458;2023-07-31T10:56:22;18.60;95.20
21676;DHT22;10999;51.332;9.458;2023-07-31T10:59:32;18.60;93.50
21676;DHT22;10999;51.332;9.458;2023-07-31T11:02:01;18.60;93.00
21676;DHT22;10999;51.332;9.458;2023-07-31T11:04:30;18.60;93.50
21676;DHT22;10999;51.332;9.458;2023-07-31T11:07:00;18.60;95.90
21676;DHT22;10999;51.332;9.458;2023-07-31T11:09:36;18.60;92.30
21676;DHT22;10999;51.332;9.458;2023-07-31T11:12:03;18.40;92.40
21676;DHT22;10999;51.332;9.458;2023-07-31T11:14:30;18.40;93.70
21676;DHT22;10999;51.332;9.458;2023-07-31T11:16:57;18.30;92.90
21676;DHT22;10999;51.332;9.458;2023-07-31T11:19:25;18.30;92.80
21676;DHT22;10999;51.332;9.458;2023-07-31T11:21:52;18.30;92.20
21676;DHT22;10999;51.332;9.458;2023-07-31T11:24:20;18.30;93.60
21676;DHT22;10999;51.332;9.458;2023-07-31T11:26:51;18.40;93.50
21676;DHT22;10999;51.332;9.458;2023-07-31T11:29:20;18.50;91.90
21676;DHT22;10999;51.332;9.458;2023-07-31T11:31:47;18.60;92.90
21676;DHT22;10999;51.332;9.458;2023-07-31T11:34:15;18.70;91.80
21676;DHT22;10999;51.332;9.458;2023-07-31T11:36:53;18.80;90.90
21676;DHT22;10999;51.332;9.458;2023-07-31T11:39:21;18.90;87.10
21676;DHT22;10999;51.332;9.458;2023-07-31T11:41:48;19.10;89.60
21676;DHT22;10999;51.332;9.458;2023-07-31T11:44:15;19.30;89.10
21676;DHT22;10999;51.332;9.458;2023-07-31T11:46:56;19.40;85.90
21676;DHT22;10999;51.332;9.458;2023-07-31T11:49:23;19.40;84.90
21676;DHT22;10999;51.332;9.458;2023-07-31T11:51:53;19.40;81.70
21676;DHT22;10999;51.332;9.458;2023-07-31T11:54:20;19.40;82.00
21676;DHT22;10999;51.332;9.458;2023-07-31T11:56:47;19.50;79.70
21676;DHT22;10999;51.332;9.458;2023-07-31T11:59:16;19.40;79.30
21676;DHT22;10999;51.332;9.458;2023-07-31T12:01:43;19.50;78.80
21676;DHT22;10999;51.332;9.458;2023-07-31T12:04:10;19.50;78.30
21676;DHT22;10999;51.332;9.458;2023-07-31T12:06:37;19.60;77.90
21676;DHT22;10999;51.332;9.458;2023-07-31T12:09:05;19.70;77.10
21676;DHT22;10999;51.332;9.458;2023-07-31T12:11:49;19.70;76.40
21676;DHT22;10999;51.332;9.458;2023-07-31T12:14:29;19.90;77.00
21676;DHT22;10999;51.332;9.458;2023-07-31T12:17:00;20.00;75.00
21676;DHT22;10999;51.332;9.458;2023-07-31T12:19:30;20.10;75.00
21676;DHT22;10999;51.332;9.458;2023-07-31T12:21:59;20.10;75.70
21676;DHT22;10999;51.332;9.458;2023-07-31T12:24:27;20.10;74.70
21676;DHT22;10999;51.332;9.458;2023-07-31T12:26:55;19.90;76.30
21676;DHT22;10999;51.332;9.458;2023-07-31T12:29:22;19.80;80.20
21676;DHT22;10999;51.332;9.458;2023-07-31T12:31:49;19.70;78.70
21676;DHT22;10999;51.332;9.458;2023-07-31T12:34:17;19.60;78.00
21676;DHT22;10999;51.332;9.458;2023-07-31T12:42:25;18.90;84.50
21676;DHT22;10999;51.332;9.458;2023-07-31T12:44:52;18.80;84.40
21676;DHT22;10999;51.332;9.458;2023-07-31T12:47:21;18.80;85.70
21676;DHT22;10999;51.332;9.458;2023-07-31T12:49:52;18.80;86.50
21676;DHT22;10999;51.332;9.458;2023-07-31T12:52:19;18.80;88.00
21676;DHT22;10999;51.332;9.458;2023-07-31T12:54:46;18.80;87.40
21676;DHT22;10999;51.332;9.458;2023-07-31T12:57:13;18.90;91.10
21676;DHT22;10999;51.332;9.458;2023-07-31T12:59:40;19.00;89.90
21676;DHT22;10999;51.332;9.458;2023-07-31T13:02:07;19.30;92.10
21676;DHT22;10999;51.332;9.458;2023-07-31T13:04:34;19.50;88.00
21676;DHT22;10999;51.332;9.458;2023-07-31T13:07:01;19.70;84.50
21676;DHT22;10999;51.332;9.458;2023-07-31T13:09:28;19.80;82.70
21676;DHT22;10999;51.332;9.458;2023-07-31T13:11:54;19.80;84.00
21676;DHT22;10999;51.332;9.458;2023-07-31T13:14:21;19.60;83.80
21676;DHT22;10999;51.332;9.458;2023-07-31T13:16:48;19.70;84.70
21676;DHT22;10999;51.332;9.458;2023-07-31T13:19:18;19.70;83.90
21676;DHT22;10999;51.332;9.458;2023-07-31T13:21:45;19.70;80.70
21676;DHT22;10999;51.332;9.458;2023-07-31T13:24:12;19.80;81.10
21676;DHT22;10999;51.332;9.458;2023-07-31T13:26:39;20.10;81.90
21676;DHT22;10999;51.332;9.458;2023-07-31T13:29:06;20.20;77.10
21676;DHT22;10999;51.332;9.458;2023-07-31T13:31:33;20.20;77.30
21676;DHT22;10999;51.332;9.458;2023-07-31T13:34:00;20.30;76.40
21676;DHT22;10999;51.332;9.458;2023-07-31T13:36:27;20.20;74.30
21676;DHT22;10999;51.332;9.458;2023-07-31T13:38:54;20.20;77.20
21676;DHT22;10999;51.332;9.458;2023-07-31T13:41:21;20.10;77.50
21676;DHT22;10999;51.332;9.458;2023-07-31T13:43:48;20.10;77.80
21676;DHT22;10999;51.332;9.458;2023-07-31T13:46:14;20.00;77.90
21676;DHT22;10999;51.332;9.458;2023-07-31T13:48:41;20.00;77.10
21676;DHT22;10999;51.332;9.458;2023-07-31T13:51:08;19.90;76.50
21676;DHT22;10999;51.332;9.458;2023-07-31T13:53:35;19.80;79.30
21676;DHT22;10999;51.332;9.458;2023-07-31T13:56:02;19.90;80.10
21676;DHT22;10999;51.332;9.458;2023-07-31T13:58:29;19.90;80.00
21676;DHT22;10999;51.332;9.458;2023-07-31T14:00:55;20.10;82.30
21676;DHT22;10999;51.332;9.458;2023-07-31T14:03:22;20.20;81.40
21676;DHT22;10999;51.332;9.458;2023-07-31T14:05:51;20.20;80.90
21676;DHT22;10999;51.332;9.458;2023-07-31T14:08:18;20.20;76.50
21676;DHT22;10999;51.332;9.458;2023-07-31T14:10:45;20.10;77.50
21676;DHT22;10999;51.332;9.458;2023-07-31T14:13:12;20.20;77.80
21676;DHT22;10999;51.332;9.458;2023-07-31T14:15:42;20.30;77.90
21676;DHT22;10999;51.332;9.458;2023-07-31T14:18:13;20.30;74.90
21676;DHT22;10999;51.332;9.458;2023-07-31T14:20:40;20.30;75.10
21676;DHT22;10999;51.332;9.458;2023-07-31T14:23:09;20.30;75.60
21676;DHT22;10999;51.332;9.458;2023-07-31T14:25:36;20.30;73.00
21676;DHT22;10999;51.332;9.458;2023-07-31T14:28:03;20.30;72.90
21676;DHT22;10999;51.332;9.458;2023-07-31T14:30:30;20.30;74.00
21676;DHT22;10999;51.332;9.458;2023-07-31T14:32:57;20.30;73.80
21676;DHT22;10999;51.332;9.458;2023-07-31T14:35:24;20.30;72.50
21676;DHT22;10999;51.332;9.458;2023-07-31T14:37:50;20.40;73.70
21676;DHT22;10999;51.332;9.458;2023-07-31T14:40:17;20.40;71.90
21676;DHT22;10999;51.332;9.458;2023-07-31T14:42:44;20.40;71.50
21676;DHT22;10999;51.332;9.458;2023-07-31T14:45:11;20.50;73.00
21676;DHT22;10999;51.332;9.458;2023-07-31T14:47:38;20.40;70.70
21676;DHT22;10999;51.332;9.458;2023-07-31T14:50:05;20.30;71.70
21676;DHT22;10999;51.332;9.458;2023-07-31T14:52:33;20.20;72.00
21676;DHT22;10999;51.332;9.458;2023-07-31T14:55:00;20.20;71.70
21676;DHT22;10999;51.332;9.458;2023-07-31T14:57:26;20.10;74.10
21676;DHT22;10999;51.332;9.458;2023-07-31T14:59:53;20.10;72.70
21676;DHT22;10999;51.332;9.458;2023-07-31T15:02:21;20.10;74.00
21676;DHT22;10999;51.332;9.458;2023-07-31T15:04:48;20.10;74.90
21676;DHT22;10999;51.332;9.458;2023-07-31T15:07:15;20.10;74.50
21676;DHT22;10999;51.332;9.458;2023-07-31T15:09:42;20.10;74.20
21676;DHT22;10999;51.332;9.458;2023-07-31T15:12:08;20.10;74.10
21676;DHT22;10999;51.332;9.458;2023-07-31T15:14:35;20.10;73.40
21676;DHT22;10999;51.332;9.458;2023-07-31T15:17:02;20.10;72.30
21676;DHT22;10999;51.332;9.458;2023-07-31T15:19:29;20.10;73.90
21676;DHT22;10999;51.332;9.458;2023-07-31T15:21:56;20.10;73.80
21676;DHT22;10999;51.332;9.458;2023-07-31T15:24:23;20.10;74.00
21676;DHT22;10999;51.332;9.458;2023-07-31T15:26:50;20.10;74.40
21676;DHT22;10999;51.332;9.458;2023-07-31T15:29:17;20.10;73.00
21676;DHT22;10999;51.332;9.458;2023-07-31T15:31:47;20.10;74.80
21676;DHT22;10999;51.332;9.458;2023-07-31T15:34:14;20.00;73.50
21676;DHT22;10999;51.332;9.458;2023-07-31T15:36:42;20.00;72.90
21676;DHT22;10999;51.332;9.458;2023-07-31T15:39:09;20.00;74.30
21676;DHT22;10999;51.332;9.458;2023-07-31T15:41:39;20.00;73.50
21676;DHT22;10999;51.332;9.458;2023-07-31T15:44:07;20.00;74.30
21676;DHT22;10999;51.332;9.458;2023-07-31T15:46:34;20.00;73.60
21676;DHT22;10999;51.332;9.458;2023-07-31T15:49:01;20.00;74.50
21676;DHT22;10999;51.332;9.458;2023-07-31T15:51:29;20.00;74.80
21676;DHT22;10999;51.332;9.458;2023-07-31T15:53:56;20.00;74.10
21676;DHT22;10999;51.332;9.458;2023-07-31T15:56:23;20.00;74.60
21676;DHT22;10999;51.332;9.458;2023-07-31T15:58:50;19.90;73.80
21676;DHT22;10999;51.332;9.458;2023-07-31T16:01:19;19.80;74.60
21676;DHT22;10999;51.332;9.458;2023-07-31T16:03:47;19.80;74.40
21676;DHT22;10999;51.332;9.458;2023-07-31T16:06:14;19.70;75.80
21676;DHT22;10999;51.332;9.458;2023-07-31T16:08:41;19.70;75.90
21676;DHT22;10999;51.332;9.458;2023-07-31T16:11:09;19.70;76.00
21676;DHT22;10999;51.332;9.458;2023-07-31T16:13:36;19.70;76.50
21676;DHT22;10999;51.332;9.458;2023-07-31T16:16:03;19.70;76.80
21676;DHT22;10999;51.332;9.458;2023-07-31T16:18:30;19.70;78.00
21676;DHT22;10999;51.332;9.458;2023-07-31T16:20:57;19.70;77.80
21676;DHT22;10999;51.332;9.458;2023-07-31T16:23:25;19.70;78.60
21676;DHT22;10999;51.332;9.458;2023-07-31T16:25:52;19.70;77.90
21676;DHT22;10999;51.332;9.458;2023-07-31T16:28:19;19.70;78.30
21676;DHT22;10999;51.332;9.458;2023-07-31T16:30:46;19.60;78.50
21676;DHT22;10999;51.332;9.458;2023-07-31T16:33:13;19.60;78.60
21676;DHT22;10999;51.332;9.458;2023-07-31T16:35:42;19.70;79.00
21676;DHT22;10999;51.332;9.458;2023-07-31T16:38:09;19.60;78.40
21676;DHT22;10999;51.332;9.458;2023-07-31T16:40:35;19.60;78.10
21676;DHT22;10999;51.332;9.458;2023-07-31T16:43:02;19.60;78.10
21676;DHT22;10999;51.332;9.458;2023-07-31T16:45:29;19.60;78.10
21676;DHT22;10999;51.332;9.458;2023-07-31T16:47:56;19.60;78.90
21676;DHT22;10999;51.332;9.458;2023-07-31T16:50:23;19.70;78.90
21676;DHT22;10999;51.332;9.458;2023-07-31T16:52:50;19.60;78.50
21676;DHT22;10999;51.332;9.458;2023-07-31T16:55:17;19.60;77.80
21676;DHT22;10999;51.332;9.458;2023-07-31T16:57:44;19.60;78.50
21676;DHT22;10999;51.332;9.458;2023-07-31T17:00:11;19.70;78.40
21676;DHT22;10999;51.332;9.458;2023-07-31T17:02:38;19.70;77.40
21676;DHT22;10999;51.332;9.458;2023-07-31T17:05:06;19.70;76.70
21676;DHT22;10999;51.332;9.458;2023-07-31T17:07:34;19.70;77.20
21676;DHT22;10999;51.332;9.458;2023-07-31T17:10:01;19.80;76.70
21676;DHT22;10999;51.332;9.458;2023-07-31T17:12:28;19.80;76.00
21676;DHT22;10999;51.332;9.458;2023-07-31T17:14:54;19.80;74.20
21676;DHT22;10999;51.332;9.458;2023-07-31T17:17:21;19.80;74.40
21676;DHT22;10999;51.332;9.458;2023-07-31T17:19:50;19.80;72.30
21676;DHT22;10999;51.332;9.458;2023-07-31T17:22:17;19.80;72.70
21676;DHT22;10999;51.332;9.458;2023-07-31T17:24:43;19.80;71.90
21676;DHT22;10999;51.332;9.458;2023-07-31T17:27:10;19.80;71.80
21676;DHT22;10999;51.332;9.458;2023-07-31T17:29:37;19.70;71.40
21676;DHT22;10999;51.332;9.458;2023-07-31T17:32:04;19.70;72.00
21676;DHT22;10999;51.332;9.458;2023-07-31T17:34:32;19.70;73.10
21676;DHT22;10999;51.332;9.458;2023-07-31T17:36:59;19.60;72.40
21676;DHT22;10999;51.332;9.458;2023-07-31T17:39:26;19.60;72.20
21676;DHT22;10999;51.332;9.458;2023-07-31T17:41:53;19.60;72.00
21676;DHT22;10999;51.332;9.458;2023-07-31T17:44:21;19.60;72.30
21676;DHT22;10999;51.332;9.458;2023-07-31T17:46:48;19.60;71.70
21676;DHT22;10999;51.332;9.458;2023-07-31T17:49:15;19.60;71.70
21676;DHT22;10999;51.332;9.458;2023-07-31T17:51:42;19.60;72.50
21676;DHT22;10999;51.332;9.458;2023-07-31T17:54:09;19.60;71.90
21676;DHT22;10999;51.332;9.458;2023-07-31T17:56:36;19.60;71.30
21676;DHT22;10999;51.332;9.458;2023-07-31T17:59:06;19.50;72.30
21676;DHT22;10999;51.332;9.458;2023-07-31T18:01:33;19.50;72.40
21676;DHT22;10999;51.332;9.458;2023-07-31T18:04:03;19.50;72.00
21676;DHT22;10999;51.332;9.458;2023-07-31T18:06:30;19.50;72.40
21676;DHT22;10999;51.332;9.458;2023-07-31T18:09:01;19.50;71.70
21676;DHT22;10999;51.332;9.458;2023-07-31T18:11:28;19.50;71.50
21676;DHT22;10999;51.332;9.458;2023-07-31T18:13:57;19.50;71.50
21676;DHT22;10999;51.332;9.458;2023-07-31T18:16:24;19.50;70.70
21676;DHT22;10999;51.332;9.458;2023-07-31T18:18:51;19.40;71.30
21676;DHT22;10999;51.332;9.458;2023-07-31T18:21:18;19.40;70.40
21676;DHT22;10999;51.332;9.458;2023-07-31T18:23:44;19.40;69.90
21676;DHT22;10999;51.332;9.458;2023-07-31T18:26:11;19.40;70.60
21676;DHT22;10999;51.332;9.458;2023-07-31T18:28:38;19.40;70.40
21676;DHT22;10999;51.332;9.458;2023-07-31T18:31:05;19.30;70.50
21676;DHT22;10999;51.332;9.458;2023-07-31T18:33:32;19.30;71.40
21676;DHT22;10999;51.332;9.458;2023-07-31T18:36:03;19.30;72.00
21676;DHT22;10999;51.332;9.458;2023-07-31T18:38:30;19.20;72.20
21676;DHT22;10999;51.332;9.458;2023-07-31T18:40:59;19.20;72.40
21676;DHT22;10999;51.332;9.458;2023-07-31T18:43:25;19.20;72.30
21676;DHT22;10999;51.332;9.458;2023-07-31T18:45:52;19.10;73.40
21676;DHT22;10999;51.332;9.458;2023-07-31T18:48:19;19.00;74.60
21676;DHT22;10999;51.332;9.458;2023-07-31T18:50:46;18.90;74.20
21676;DHT22;10999;51.332;9.458;2023-07-31T18:53:13;18.90;74.40
21676;DHT22;10999;51.332;9.458;2023-07-31T18:55:44;18.90;75.20
21676;DHT22;10999;51.332;9.458;2023-07-31T18:58:10;18.80;74.60
21676;DHT22;10999;51.332;9.458;2023-07-31T19:00:37;18.80;75.50
21676;DHT22;10999;51.332;9.458;2023-07-31T19:03:04;18.80;76.10
21676;DHT22;10999;51.332;9.458;2023-07-31T19:05:31;18.70;77.00
21676;DHT22;10999;51.332;9.458;2023-07-31T19:07:58;18.70;78.20
21676;DHT22;10999;51.332;9.458;2023-07-31T19:10:32;18.60;80.00
21676;DHT22;10999;51.332;9.458;2023-07-31T19:12:59;18.50;82.60
21676;DHT22;10999;51.332;9.458;2023-07-31T19:15:29;18.40;84.50
21676;DHT22;10999;51.332;9.458;2023-07-31T19:17:56;18.30;86.30
21676;DHT22;10999;51.332;9.458;2023-07-31T19:20:24;18.10;87.30
21676;DHT22;10999;51.332;9.458;2023-07-31T19:22:50;18.00;87.50
21676;DHT22;10999;51.332;9.458;2023-07-31T19:25:20;17.90;88.50
21676;DHT22;10999;51.332;9.458;2023-07-31T19:27:47;17.90;89.40
21676;DHT22;10999;51.332;9.458;2023-07-31T19:30:19;17.80;90.40
21676;DHT22;10999;51.332;9.458;2023-07-31T19:32:46;17.70;91.30
21676;DHT22;10999;51.332;9.458;2023-07-31T19:35:15;17.60;92.40
21676;DHT22;10999;51.332;9.458;2023-07-31T19:37:43;17.60;92.80
21676;DHT22;10999;51.332;9.458;2023-07-31T19:40:10;17.60;93.80
21676;DHT22;10999;51.332;9.458;2023-07-31T19:42:37;17.60;94.10
21676;DHT22;10999;51.332;9.458;2023-07-31T19:45:04;17.50;94.80
21676;DHT22;10999;51.332;9.458;2023-07-31T19:47:32;17.50;94.90
21676;DHT22;10999;51.332;9.458;2023-07-31T19:49:59;17.40;95.00
21676;DHT22;10999;51.332;9.458;2023-07-31T19:52:26;17.40;94.40
21676;DHT22;10999;51.332;9.458;2023-07-31T19:54:53;17.40;94.00
21676;DHT22;10999;51.332;9.458;2023-07-31T19:57:20;17.30;93.80
21676;DHT22;10999;51.332;9.458;2023-07-31T19:59:47;17.30;94.80
21676;DHT22;10999;51.332;9.458;2023-07-31T20:02:14;17.30;95.60